sensor_id;sensor_type;location;lat;lon;timestamp;pressure;altitude;pressure_sealevel;temperature;humidity
30463;BME280;17256;43.618;25.336;2023-07-09T05:51:37;101022.97;;;25.29;100.00
30463;BME280;17256;43.618;25.336;2023-07-09T07:10:39;101000.41;;;27.81;82.05
30463;BME280;17256;43.618;25.336;2023-07-09T07:13:10;100851.94;;;27.29;82.11
30463;BME280;17256;43.618;25.336;2023-07-09T07:26:27;101008.88;;;28.98;80.82
30463;BME280;17256;43.618;25.336;2023-07-09T07:39:01;100806.28;;;27.78;79.97
30463;BME280;17256;43.618;25.336;2023-07-09T07:41:34;100953.75;;;28.54;78.13
30463;BME280;17256;43.618;25.336;2023-07-09T07:50:32;100884.03;;;28.17;79.15
30463;BME280;17256;43.618;25.336;2023-07-09T07:53:23;100964.88;;;28.13;79.88
30463;BME280;17256;43.618;25.336;2023-07-09T07:55:49;100916.47;;;28.19;85.35
30463;BME280;17256;43.618;25.336;2023-07-09T07:58:16;100874.47;;;27.99;82.12
30463;BME280;17256;43.618;25.336;2023-07-09T08:00:47;100974.41;;;28.49;83.41
30463;BME280;17256;43.618;25.336;2023-07-09T08:04:03;100836.47;;;28.10;81.00
30463;BME280;17256;43.618;25.336;2023-07-09T08:42:49;100967.47;;;29.43;65.58
30463;BME280;17256;43.618;25.336;2023-07-09T08:45:38;100850.06;;;29.18;66.50
30463;BME280;17256;43.618;25.336;2023-07-09T09:17:27;100852.44;;;28.89;66.25
30463;BME280;17256;43.618;25.336;2023-07-09T09:23:13;100931.97;;;29.51;63.17
30463;BME280;17256;43.618;25.336;2023-07-09T09:25:42;100970.06;;;29.67;60.42
30463;BME280;17256;43.618;25.336;2023-07-09T09:31:25;100945.31;;;29.95;60.63
30463;BME280;17256;43.618;25.336;2023-07-09T09:33:51;100902.84;;;29.36;58.00
30463;BME280;17256;43.618;25.336;2023-07-09T09:36:26;100883.16;;;29.31;56.91
30463;BME280;17256;43.618;25.336;2023-07-09T09:38:52;100923.59;;;29.46;58.29
30463;BME280;17256;43.618;25.336;2023-07-09T09:41:24;100864.16;;;29.46;60.09
30463;BME280;17256;43.618;25.336;2023-07-09T09:43:52;100903.59;;;30.00;56.99
30463;BME280;17256;43.618;25.336;2023-07-09T09:46:21;100932.50;;;30.11;55.98
30463;BME280;17256;43.618;25.336;2023-07-09T09:48:49;100910.19;;;29.96;56.38
30463;BME280;17256;43.618;25.336;2023-07-09T09:51:17;100885.28;;;29.62;58.70
30463;BME280;17256;43.618;25.336;2023-07-09T09:53:57;100904.19;;;30.11;55.76
30463;BME280;17256;43.618;25.336;2023-07-09T09:56:36;100970.75;;;30.76;57.61
30463;BME280;17256;43.618;25.336;2023-07-09T09:59:03;100943.66;;;30.61;50.69
30463;BME280;17256;43.618;25.336;2023-07-09T10:01:34;100846.88;;;30.14;49.17
30463;BME280;17256;43.618;25.336;2023-07-09T10:04:02;100961.81;;;30.60;47.51
30463;BME280;17256;43.618;25.336;2023-07-09T10:06:42;100928.44;;;30.26;47.45
30463;BME280;17256;43.618;25.336;2023-07-09T10:09:38;100949.16;;;30.35;47.74
30463;BME280;17256;43.618;25.336;2023-07-09T10:15:01;100865.09;;;29.55;48.29
30463;BME280;17256;43.618;25.336;2023-07-09T10:17:41;100947.63;;;30.29;50.09
30463;BME280;17256;43.618;25.336;2023-07-09T10:22:57;100946.44;;;30.83;47.40
30463;BME280;17256;43.618;25.336;2023-07-09T10:28:41;100946.28;;;30.57;50.64
30463;BME280;17256;43.618;25.336;2023-07-09T10:31:17;100945.09;;;30.81;49.98
30463;BME280;17256;43.618;25.336;2023-07-09T10:33:49;100931.63;;;30.95;47.43
30463;BME280;17256;43.618;25.336;2023-07-09T10:36:38;100945.44;;;30.79;46.47
30463;BME280;17256;43.618;25.336;2023-07-09T10:39:17;100888.84;;;30.43;47.59
30463;BME280;17256;43.618;25.336;2023-07-09T10:41:46;100914.06;;;30.76;46.47
30463;BME280;17256;43.618;25.336;2023-07-09T10:44:34;100922.59;;;30.53;46.70
30463;BME280;17256;43.618;25.336;2023-07-09T10:47:52;100903.75;;;30.49;48.32
30463;BME280;17256;43.618;25.336;2023-07-09T10:49:51;100909.19;;;30.45;49.03
30463;BME280;17256;43.618;25.336;2023-07-09T10:52:27;100932.28;;;30.92;47.43
30463;BME280;17256;43.618;25.336;2023-07-09T10:58:10;100922.59;;;31.33;46.70
30463;BME280;17256;43.618;25.336;2023-07-09T11:00:41;100904.03;;;31.18;47.02
30463;BME280;17256;43.618;25.336;2023-07-09T11:03:19;100842.00;;;30.37;49.15
30463;BME280;17256;43.618;25.336;2023-07-09T11:05:48;100874.25;;;30.98;45.95
30463;BME280;17256;43.618;25.336;2023-07-09T11:08:25;100897.56;;;30.86;46.56
30463;BME280;17256;43.618;25.336;2023-07-09T11:10:56;100856.69;;;30.79;46.79
30463;BME280;17256;43.618;25.336;2023-07-09T11:13:28;100862.44;;;30.25;48.38
30463;BME280;17256;43.618;25.336;2023-07-09T11:15:57;100874.75;;;30.52;49.52
30463;BME280;17256;43.618;25.336;2023-07-09T11:18:25;100882.13;;;31.10;48.50
30463;BME280;17256;43.618;25.336;2023-07-09T11:21:16;100905.75;;;31.53;47.68
30463;BME280;17256;43.618;25.336;2023-07-09T11:23:53;100836.97;;;31.31;47.35
30463;BME280;17256;43.618;25.336;2023-07-09T11:26:29;100909.91;;;31.39;45.63
30463;BME280;17256;43.618;25.336;2023-07-09T11:29:14;100862.06;;;30.98;46.57
30463;BME280;17256;43.618;25.336;2023-07-09T11:31:42;100853.41;;;31.11;46.70
30463;BME280;17256;43.618;25.336;2023-07-09T11:36:51;100853.31;;;31.51;47.17
30463;BME280;17256;43.618;25.336;2023-07-09T11:39:30;100829.94;;;31.54;46.46
30463;BME280;17256;43.618;25.336;2023-07-09T11:41:59;100792.38;;;31.22;43.77
30463;BME280;17256;43.618;25.336;2023-07-09T11:44:32;100863.47;;;31.17;45.25
30463;BME280;17256;43.618;25.336;2023-07-09T11:52:22;100884.19;;;32.04;42.41
30463;BME280;17256;43.618;25.336;2023-07-09T11:54:49;100814.41;;;31.60;40.74
30463;BME280;17256;43.618;25.336;2023-07-09T11:57:17;100875.69;;;31.70;42.60
30463;BME280;17256;43.618;25.336;2023-07-09T11:59:43;100843.16;;;31.50;42.06
30463;BME280;17256;43.618;25.336;2023-07-09T12:02:16;100816.22;;;31.47;42.95
30463;BME280;17256;43.618;25.336;2023-07-09T12:04:43;100846.16;;;31.79;43.70
30463;BME280;17256;43.618;25.336;2023-07-09T12:07:13;100787.69;;;31.44;42.19
30463;BME280;17256;43.618;25.336;2023-07-09T12:09:41;100792.16;;;30.93;42.13
30463;BME280;17256;43.618;25.336;2023-07-09T12:12:26;100812.91;;;31.37;44.01
30463;BME280;17256;43.618;25.336;2023-07-09T12:14:51;100824.25;;;31.89;42.94
30463;BME280;17256;43.618;25.336;2023-07-09T12:17:18;100795.88;;;31.37;42.26
30463;BME280;17256;43.618;25.336;2023-07-09T12:19:44;100827.94;;;31.80;41.69
30463;BME280;17256;43.618;25.336;2023-07-09T12:22:16;100851.91;;;32.18;42.32
30463;BME280;17256;43.618;25.336;2023-07-09T12:24:44;100859.63;;;32.26;40.81
30463;BME280;17256;43.618;25.336;2023-07-09T12:27:25;100851.25;;;32.12;40.97
30463;BME280;17256;43.618;25.336;2023-07-09T12:29:56;100821.44;;;32.35;41.20
30463;BME280;17256;43.618;25.336;2023-07-09T12:32:22;100639.16;;;31.14;41.22
30463;BME280;17256;43.618;25.336;2023-07-09T12:34:54;100802.28;;;32.15;39.22
30463;BME280;17256;43.618;25.336;2023-07-09T12:37:21;100665.66;;;31.44;39.20
30463;BME280;17256;43.618;25.336;2023-07-09T12:39:50;100814.97;;;32.26;39.92
30463;BME280;17256;43.618;25.336;2023-07-09T12:42:24;100811.44;;;32.29;40.22
30463;BME280;17256;43.618;25.336;2023-07-09T12:44:54;100811.63;;;32.16;39.97
30463;BME280;17256;43.618;25.336;2023-07-09T12:47:20;100777.50;;;32.24;40.56
30463;BME280;17256;43.618;25.336;2023-07-09T12:49:48;100816.19;;;32.55;40.78
30463;BME280;17256;43.618;25.336;2023-07-09T12:52:22;100821.25;;;32.49;42.32
30463;BME280;17256;43.618;25.336;2023-07-09T12:54:58;100823.75;;;32.42;40.17
30463;BME280;17256;43.618;25.336;2023-07-09T12:57:25;100812.16;;;32.56;40.09
30463;BME280;17256;43.618;25.336;2023-07-09T12:59:51;100790.91;;;32.15;39.82
30463;BME280;17256;43.618;25.336;2023-07-09T13:02:26;100818.75;;;32.39;40.58
30463;BME280;17256;43.618;25.336;2023-07-09T13:05:03;100820.56;;;32.43;39.74
30463;BME280;17256;43.618;25.336;2023-07-09T13:07:36;100811.91;;;32.69;40.20
30463;BME280;17256;43.618;25.336;2023-07-09T13:10:06;100776.81;;;32.36;37.00
30463;BME280;17256;43.618;25.336;2023-07-09T13:12:33;100782.63;;;32.39;40.65
30463;BME280;17256;43.618;25.336;2023-07-09T13:15:00;100806.84;;;32.46;41.01
30463;BME280;17256;43.618;25.336;2023-07-09T13:17:32;100772.34;;;32.18;41.07
30463;BME280;17256;43.618;25.336;2023-07-09T13:19:58;100811.69;;;32.45;42.45
30463;BME280;17256;43.618;25.336;2023-07-09T13:22:24;100772.25;;;31.97;42.41
30463;BME280;17256;43.618;25.336;2023-07-09T13:24:50;100806.47;;;32.09;41.23
30463;BME280;17256;43.618;25.336;2023-07-09T13:27:16;100705.00;;;31.63;42.17
30463;BME280;17256;43.618;25.336;2023-07-09T13:29:42;100806.97;;;32.58;43.30
30463;BME280;17256;43.618;25.336;2023-07-09T13:32:12;100808.22;;;32.69;43.68
30463;BME280;17256;43.618;25.336;2023-07-09T13:34:38;100782.44;;;32.44;43.52
30463;BME280;17256;43.618;25.336;2023-07-09T13:37:12;100804.25;;;32.32;41.69
30463;BME280;17256;43.618;25.336;2023-07-09T13:39:37;100735.41;;;31.62;42.91
30463;BME280;17256;43.618;25.336;2023-07-09T13:42:10;100801.09;;;32.16;42.11
30463;BME280;17256;43.618;25.336;2023-07-09T13:44:36;100776.44;;;31.91;41.37
30463;BME280;17256;43.618;25.336;2023-07-09T13:47:01;100731.38;;;31.80;42.85
30463;BME280;17256;43.618;25.336;2023-07-09T13:49:28;100765.41;;;31.98;42.97
30463;BME280;17256;43.618;25.336;2023-07-09T13:51:56;100733.72;;;31.78;43.03
30463;BME280;17256;43.618;25.336;2023-07-09T13:54:33;100769.34;;;32.14;42.27
30463;BME280;17256;43.618;25.336;2023-07-09T13:57:04;100747.56;;;31.89;42.04
30463;BME280;17256;43.618;25.336;2023-07-09T13:59:30;100794.91;;;32.23;44.12
30463;BME280;17256;43.618;25.336;2023-07-09T14:01:57;100806.06;;;32.36;44.40
30463;BME280;17256;43.618;25.336;2023-07-09T14:04:24;100812.09;;;32.35;44.86
30463;BME280;17256;43.618;25.336;2023-07-09T14:06:51;100773.03;;;32.14;44.58
30463;BME280;17256;43.618;25.336;2023-07-09T14:09:16;100776.41;;;32.08;44.72
30463;BME280;17256;43.618;25.336;2023-07-09T14:11:45;100800.09;;;32.29;45.00
30463;BME280;17256;43.618;25.336;2023-07-09T14:14:16;100806.75;;;32.33;45.59
30463;BME280;17256;43.618;25.336;2023-07-09T14:16:42;100815.53;;;31.94;45.62
30463;BME280;17256;43.618;25.336;2023-07-09T14:19:22;100781.28;;;31.90;45.25
30463;BME280;17256;43.618;25.336;2023-07-09T14:21:49;100708.06;;;31.49;46.46
30463;BME280;17256;43.618;25.336;2023-07-09T14:26:47;100776.00;;;31.80;45.61
30463;BME280;17256;43.618;25.336;2023-07-09T14:29:13;100768.41;;;31.93;45.63
30463;BME280;17256;43.618;25.336;2023-07-09T14:31:40;100761.75;;;31.89;45.56
30463;BME280;17256;43.618;25.336;2023-07-09T14:34:33;100778.25;;;32.04;45.99
30463;BME280;17256;43.618;25.336;2023-07-09T14:36:59;100786.19;;;32.19;45.37
30463;BME280;17256;43.618;25.336;2023-07-09T14:39:27;100740.88;;;31.85;46.83
30463;BME280;17256;43.618;25.336;2023-07-09T14:41:55;100781.50;;;32.32;47.20
30463;BME280;17256;43.618;25.336;2023-07-09T14:44:29;100767.97;;;32.20;47.11
30463;BME280;17256;43.618;25.336;2023-07-09T14:46:57;100735.41;;;31.79;46.56
30463;BME280;17256;43.618;25.336;2023-07-09T14:49:24;100794.97;;;31.97;47.07
30463;BME280;17256;43.618;25.336;2023-07-09T14:51:54;100778.47;;;31.90;47.58
30463;BME280;17256;43.618;25.336;2023-07-09T14:54:21;100786.28;;;31.93;48.24
30463;BME280;17256;43.618;25.336;2023-07-09T14:56:51;100608.19;;;30.83;48.24
30463;BME280;17256;43.618;25.336;2023-07-09T14:59:17;100790.78;;;32.03;47.51
30463;BME280;17256;43.618;25.336;2023-07-09T15:01:43;100764.63;;;31.80;48.21
30463;BME280;17256;43.618;25.336;2023-07-09T15:04:39;100779.63;;;31.89;47.67
30463;BME280;17256;43.618;25.336;2023-07-09T15:07:07;100792.34;;;31.83;49.00
30463;BME280;17256;43.618;25.336;2023-07-09T15:09:36;100711.09;;;31.35;48.37
30463;BME280;17256;43.618;25.336;2023-07-09T15:12:02;100733.28;;;31.42;47.58
30463;BME280;17256;43.618;25.336;2023-07-09T15:14:28;100750.78;;;31.44;48.17
30463;BME280;17256;43.618;25.336;2023-07-09T15:16:54;100674.22;;;31.09;49.10
30463;BME280;17256;43.618;25.336;2023-07-09T15:19:21;100718.09;;;31.38;48.50
30463;BME280;17256;43.618;25.336;2023-07-09T15:21:48;100710.78;;;31.19;48.86
30463;BME280;17256;43.618;25.336;2023-07-09T15:24:27;100763.66;;;31.41;48.06
30463;BME280;17256;43.618;25.336;2023-07-09T15:26:55;100731.63;;;31.32;47.82
30463;BME280;17256;43.618;25.336;2023-07-09T15:29:21;100742.13;;;31.49;48.46
30463;BME280;17256;43.618;25.336;2023-07-09T15:31:48;100780.00;;;31.62;48.75
30463;BME280;17256;43.618;25.336;2023-07-09T15:34:14;100721.75;;;30.95;47.97
30463;BME280;17256;43.618;25.336;2023-07-09T15:36:46;100784.69;;;31.40;48.52
30463;BME280;17256;43.618;25.336;2023-07-09T15:39:13;100764.16;;;31.17;48.03
30463;BME280;17256;43.618;25.336;2023-07-09T15:41:39;100750.47;;;31.02;48.33
30463;BME280;17256;43.618;25.336;2023-07-09T15:44:09;100707.09;;;30.76;47.93
30463;BME280;17256;43.618;25.336;2023-07-09T15:46:35;100753.28;;;30.93;47.65
30463;BME280;17256;43.618;25.336;2023-07-09T15:49:01;100736.13;;;30.81;48.69
30463;BME280;17256;43.618;25.336;2023-07-09T15:51:28;100743.13;;;31.01;48.86
30463;BME280;17256;43.618;25.336;2023-07-09T15:53:54;100709.94;;;30.84;48.76
30463;BME280;17256;43.618;25.336;2023-07-09T15:56:26;100764.53;;;31.25;47.08
30463;BME280;17256;43.618;25.336;2023-07-09T15:58:54;100713.72;;;30.63;47.64
30463;BME280;17256;43.618;25.336;2023-07-09T16:01:20;100754.13;;;30.94;48.52
30463;BME280;17256;43.618;25.336;2023-07-09T16:04:00;100726.44;;;30.91;48.19
30463;BME280;17256;43.618;25.336;2023-07-09T16:06:26;100743.97;;;31.02;47.84
30463;BME280;17256;43.618;25.336;2023-07-09T16:08:51;100795.53;;;31.21;47.40
30463;BME280;17256;43.618;25.336;2023-07-09T16:11:20;100684.81;;;30.35;47.92
30463;BME280;17256;43.618;25.336;2023-07-09T16:13:46;100766.75;;;30.71;48.27
30463;BME280;17256;43.618;25.336;2023-07-09T16:16:17;100790.16;;;30.85;48.22
30463;BME280;17256;43.618;25.336;2023-07-09T16:18:43;100748.00;;;30.44;48.74
30463;BME280;17256;43.618;25.336;2023-07-09T16:21:31;100794.78;;;30.72;48.81
30463;BME280;17256;43.618;25.336;2023-07-09T16:23:59;100752.59;;;30.62;48.50
30463;BME280;17256;43.618;25.336;2023-07-09T16:26:27;100741.31;;;30.40;48.66
30463;BME280;17256;43.618;25.336;2023-07-09T16:28:53;100806.00;;;30.86;48.27
30463;BME280;17256;43.618;25.336;2023-07-09T16:31:19;100706.97;;;30.24;48.60
30463;BME280;17256;43.618;25.336;2023-07-09T16:33:44;100634.31;;;29.80;48.53
30463;BME280;17256;43.618;25.336;2023-07-09T16:36:17;100737.47;;;30.27;49.27
30463;BME280;17256;43.618;25.336;2023-07-09T16:38:45;100801.63;;;30.71;48.86
30463;BME280;17256;43.618;25.336;2023-07-09T16:41:11;100809.94;;;30.68;48.42
30463;BME280;17256;43.618;25.336;2023-07-09T16:43:41;100766.31;;;30.29;49.20
30463;BME280;17256;43.618;25.336;2023-07-09T16:46:15;100806.56;;;30.57;49.15
30463;BME280;17256;43.618;25.336;2023-07-09T16:48:42;100765.72;;;30.10;49.10
30463;BME280;17256;43.618;25.336;2023-07-09T16:51:08;100782.72;;;30.10;48.89
30463;BME280;17256;43.618;25.336;2023-07-09T16:53:34;100767.59;;;29.92;48.91
30463;BME280;17256;43.618;25.336;2023-07-09T16:55:59;100794.13;;;29.74;49.76
30463;BME280;17256;43.618;25.336;2023-07-09T16:58:30;100725.41;;;29.28;50.30
30463;BME280;17256;43.618;25.336;2023-07-09T17:00:56;100664.44;;;28.77;49.66
30463;BME280;17256;43.618;25.336;2023-07-09T17:03:22;100734.09;;;28.96;50.37
30463;BME280;17256;43.618;25.336;2023-07-09T17:05:48;100717.59;;;28.89;50.78
30463;BME280;17256;43.618;25.336;2023-07-09T17:08:13;100592.81;;;27.96;50.76
30463;BME280;17256;43.618;25.336;2023-07-09T17:10:40;100799.16;;;29.18;50.56
30463;BME280;17256;43.618;25.336;2023-07-09T17:13:06;100706.25;;;28.53;50.52
30463;BME280;17256;43.618;25.336;2023-07-09T17:15:38;100813.13;;;29.15;50.62
30463;BME280;17256;43.618;25.336;2023-07-09T17:21:25;100726.03;;;28.39;51.77
30463;BME280;17256;43.618;25.336;2023-07-09T17:23:51;100703.66;;;28.15;52.41
30463;BME280;17256;43.618;25.336;2023-07-09T17:26:17;100705.34;;;28.03;52.48
30463;BME280;17256;43.618;25.336;2023-07-09T17:28:46;100730.72;;;28.16;52.45
30463;BME280;17256;43.618;25.336;2023-07-09T17:31:11;100769.38;;;28.35;53.22
30463;BME280;17256;43.618;25.336;2023-07-09T17:33:37;100694.84;;;27.76;53.68
30463;BME280;17256;43.618;25.336;2023-07-09T17:36:12;100618.41;;;27.31;53.47
30463;BME280;17256;43.618;25.336;2023-07-09T17:41:36;100767.09;;;27.91;53.94
30463;BME280;17256;43.618;25.336;2023-07-09T17:47:00;100816.59;;;28.02;54.70
30463;BME280;17256;43.618;25.336;2023-07-09T17:49:31;100689.25;;;27.11;55.35
30463;BME280;17256;43.618;25.336;2023-07-09T17:52:29;100821.13;;;27.84;55.28
30463;BME280;17256;43.618;25.336;2023-07-09T17:54:56;100784.44;;;27.51;55.23
30463;BME280;17256;43.618;25.336;2023-07-09T20:12:33;100896.00;;;25.51;57.60
30463;BME280;17256;43.618;25.336;2023-07-09T20:16:28;100590.97;;;23.43;58.29
30463;BME280;17256;43.618;25.336;2023-07-09T20:20:25;100567.47;;;23.33;58.91
30463;BME280;17256;43.618;25.336;2023-07-09T20:24:12;100904.28;;;25.37;58.48
30463;BME280;17256;43.618;25.336;2023-07-09T20:28:04;100901.78;;;25.26;59.37
30463;BME280;17256;43.618;25.336;2023-07-09T20:31:54;100796.50;;;24.53;59.92
30463;BME280;17256;43.618;25.336;2023-07-09T20:35:48;100857.66;;;24.67;60.84
30463;BME280;17256;43.618;25.336;2023-07-09T20:39:57;100682.00;;;23.76;61.27
30463;BME280;17256;43.618;25.336;2023-07-09T20:42:53;100828.25;;;24.54;61.86
30463;BME280;17256;43.618;25.336;2023-07-09T20:46:21;100811.16;;;24.45;61.67
30463;BME280;17256;43.618;25.336;2023-07-09T20:50:13;100847.63;;;24.50;62.39
30463;BME280;17256;43.618;25.336;2023-07-09T20:53:55;100657.44;;;23.22;63.27
30463;BME280;17256;43.618;25.336;2023-07-09T20:58:02;100617.66;;;22.99;63.44
30463;BME280;17256;43.618;25.336;2023-07-09T21:01:36;100693.25;;;23.45;63.49
30463;BME280;17256;43.618;25.336;2023-07-09T21:05:35;100913.25;;;24.75;64.37
30463;BME280;17256;43.618;25.336;2023-07-09T21:12:40;100603.09;;;22.67;64.93
30463;BME280;17256;43.618;25.336;2023-07-09T21:15:56;100672.84;;;23.19;64.70
30463;BME280;17256;43.618;25.336;2023-07-09T21:19:46;100916.13;;;24.60;66.12
30463;BME280;17256;43.618;25.336;2023-07-09T21:23:28;100929.59;;;24.47;66.78
30463;BME280;17256;43.618;25.336;2023-07-09T21:26:03;100623.53;;;22.62;66.88
30463;BME280;17256;43.618;25.336;2023-07-09T21:28:59;100852.47;;;23.99;67.15
30463;BME280;17256;43.618;25.336;2023-07-09T21:32:35;100916.13;;;24.44;68.10
30463;BME280;17256;43.618;25.336;2023-07-09T21:36:36;100497.25;;;21.93;68.37
30463;BME280;17256;43.618;25.336;2023-07-09T21:40:14;100585.13;;;22.27;69.21
30463;BME280;17256;43.618;25.336;2023-07-09T21:47:15;100591.03;;;22.31;70.02
30463;BME280;17256;43.618;25.336;2023-07-09T21:50:17;100554.91;;;22.09;70.84
30463;BME280;17256;43.618;25.336;2023-07-09T21:53:44;100587.66;;;22.24;71.50
30463;BME280;17256;43.618;25.336;2023-07-09T22:00:52;100917.53;;;24.27;72.70
30463;BME280;17256;43.618;25.336;2023-07-09T22:04:08;100674.47;;;22.64;72.93
30463;BME280;17256;43.618;25.336;2023-07-09T22:07:22;100565.81;;;22.16;71.14
30463;BME280;17256;43.618;25.336;2023-07-09T22:10:33;100694.06;;;22.80;71.89
30463;BME280;17256;43.618;25.336;2023-07-09T22:14:26;100856.44;;;23.83;71.75
30463;BME280;17256;43.618;25.336;2023-07-09T22:17:44;100933.88;;;24.30;72.25
30463;BME280;17256;43.618;25.336;2023-07-09T22:20:26;100589.88;;;22.12;72.53
30463;BME280;17256;43.618;25.336;2023-07-09T22:23:54;100928.78;;;24.16;72.58
30463;BME280;17256;43.618;25.336;2023-07-09T22:26:53;100940.84;;;24.17;72.87
30463;BME280;17256;43.618;25.336;2023-07-09T22:29:32;100585.69;;;22.09;72.27
30463;BME280;17256;43.618;25.336;2023-07-09T22:32:22;100613.94;;;22.18;74.28
30463;BME280;17256;43.618;25.336;2023-07-09T22:35:37;100933.56;;;24.21;73.94
30463;BME280;17256;43.618;25.336;2023-07-09T22:38:22;100869.03;;;23.55;74.29
30463;BME280;17256;43.618;25.336;2023-07-09T22:45:12;100719.91;;;22.87;74.93
30463;BME280;17256;43.618;25.336;2023-07-09T22:47:58;100610.84;;;22.09;75.82
30463;BME280;17256;43.618;25.336;2023-07-09T22:51:01;100959.94;;;24.00;75.05
30463;BME280;17256;43.618;25.336;2023-07-09T22:57:46;100653.66;;;22.25;76.70
30463;BME280;17256;43.618;25.336;2023-07-09T23:00:43;100809.56;;;23.17;77.01
30463;BME280;17256;43.618;25.336;2023-07-09T23:03:45;100752.31;;;22.72;77.63
30463;BME280;17256;43.618;25.336;2023-07-09T23:07:17;100926.56;;;23.83;76.77
30463;BME280;17256;43.618;25.336;2023-07-09T23:10:39;100666.53;;;22.21;77.62
30463;BME280;17256;43.618;25.336;2023-07-09T23:13:52;100590.59;;;21.82;77.04
30463;BME280;17256;43.618;25.336;2023-07-09T23:16:59;100905.78;;;23.58;78.69
30463;BME280;17256;43.618;25.336;2023-07-09T23:19:46;100689.81;;;22.31;77.72
30463;BME280;17256;43.618;25.336;2023-07-09T23:22:47;100908.88;;;23.72;77.72
30463;BME280;17256;43.618;25.336;2023-07-09T23:25:54;100583.84;;;21.77;78.74
30463;BME280;17256;43.618;25.336;2023-07-09T23:29:01;100841.22;;;23.28;77.11
30463;BME280;17256;43.618;25.336;2023-07-09T23:32:35;100816.00;;;23.13;78.39
30463;BME280;17256;43.618;25.336;2023-07-09T23:35:35;100581.59;;;21.64;77.74
30463;BME280;17256;43.618;25.336;2023-07-09T23:38:51;100547.59;;;21.30;78.50
30463;BME280;17256;43.618;25.336;2023-07-09T23:42:04;100917.84;;;23.59;79.23
30463;BME280;17256;43.618;25.336;2023-07-09T23:45:14;100721.16;;;22.44;79.25
30463;BME280;17256;43.618;25.336;2023-07-09T23:49:02;100910.47;;;23.48;79.84
30463;BME280;17256;43.618;25.336;2023-07-09T23:52:04;100785.59;;;22.59;81.77
30463;BME280;17256;43.618;25.336;2023-07-09T23:55:57;100637.50;;;21.69;85.17
30463;BME280;17256;43.618;25.336;2023-07-09T23:59:00;100550.50;;;21.03;86.83
